Time;durP1;ratioP1;P1;durP2;ratioP2;P2;SDS_P1;SDS_P2;PMS_P1;PMS_P2;Temp;Humidity;BMP_temperature;BMP_pressure;BME280_temperature;BME280_humidity;BME280_pressure;Samples;Min_cycle;Max_cycle;Signal;HPM_P1;HPM_P2
2023/05/10 00:02:45;;;;;;;6.63;6.03;;;11.80;99.90;;;;;;6299339;28;20469;-65
2023/05/10 00:05:48;;;;;;;6.33;5.70;;;11.80;99.90;;;;;;6299068;28;20514;-65
2023/05/10 00:08:51;;;;;;;5.40;4.90;;;11.80;99.90;;;;;;6299060;28;20472;-66
2023/05/10 00:11:54;;;;;;;5.60;4.90;;;11.70;99.90;;;;;;6298999;28;20469;-65
2023/05/10 00:14:58;;;;;;;6.67;4.83;;;11.70;99.90;;;;;;6299614;28;20476;-65
2023/05/10 00:18:02;;;;;;;5.17;4.60;;;11.70;99.90;;;;;;6298968;28;20480;-65
2023/05/10 00:21:06;;;;;;;5.00;4.60;;;11.70;99.90;;;;;;6299345;28;20456;-65
2023/05/10 00:24:09;;;;;;;5.93;5.43;;;11.70;99.90;;;;;;6315621;28;20463;-65
2023/05/10 00:27:12;;;;;;;7.93;6.00;;;11.60;99.90;;;;;;6322042;28;20952;-65
2023/05/10 00:30:15;;;;;;;5.43;4.77;;;11.60;99.90;;;;;;6325549;28;20444;-65
2023/05/10 00:33:20;;;;;;;6.03;5.50;;;11.60;99.90;;;;;;6328205;28;20542;-65
2023/05/10 00:36:23;;;;;;;6.17;5.57;;;11.50;99.90;;;;;;6315888;28;20455;-65
2023/05/10 00:39:28;;;;;;;5.20;4.77;;;11.40;99.90;;;;;;6315932;28;20480;-65
2023/05/10 00:42:31;;;;;;;5.23;4.80;;;11.40;99.90;;;;;;6314578;28;20487;-65
2023/05/10 00:45:36;;;;;;;5.67;5.10;;;11.30;99.90;;;;;;6313948;28;20476;-65
2023/05/10 00:48:41;;;;;;;7.57;4.77;;;11.30;99.90;;;;;;6316238;28;20453;-65
2023/05/10 00:51:44;;;;;;;5.43;4.90;;;11.30;99.90;;;;;;6315614;28;20466;-65
2023/05/10 00:54:48;;;;;;;6.23;5.20;;;11.30;99.90;;;;;;6315428;28;20509;-65
2023/05/10 00:57:51;;;;;;;7.80;4.77;;;11.30;99.90;;;;;;6314540;28;20473;-65
2023/05/10 01:00:56;;;;;;;7.00;6.30;;;11.30;99.90;;;;;;6316668;28;20475;-65
2023/05/10 01:04:01;;;;;;;5.50;4.70;;;11.30;99.90;;;;;;6317436;28;20457;-65
2023/05/10 01:07:04;;;;;;;6.33;4.83;;;11.30;99.90;;;;;;6312982;28;20472;-65
2023/05/10 01:10:09;;;;;;;5.00;4.50;;;11.20;99.90;;;;;;6313833;28;20461;-65
2023/05/10 01:13:13;;;;;;;7.47;5.90;;;11.20;99.90;;;;;;6315857;28;20473;-65
2023/05/10 01:16:17;;;;;;;5.73;5.10;;;11.20;99.90;;;;;;6315893;28;20472;-65
2023/05/10 01:19:26;;;;;;;5.33;4.83;;;11.20;99.90;;;;;;6313491;28;20460;-65
2023/05/10 01:22:51;;;;;;;5.70;5.20;;;11.20;99.90;;;;;;6315174;28;20944;-66
2023/05/10 01:26:31;;;;;;;6.03;5.20;;;11.20;99.90;;;;;;6315957;28;20477;-64
2023/05/10 01:30:08;;;;;;;5.13;4.63;;;11.10;99.90;;;;;;6313441;28;20464;-65
2023/05/10 01:33:26;;;;;;;6.27;5.67;;;11.00;99.90;;;;;;6314300;28;20455;-65
2023/05/10 01:36:33;;;;;;;11.33;5.83;;;11.00;99.90;;;;;;6305482;28;20937;-65
2023/05/10 01:39:45;;;;;;;5.90;5.13;;;11.00;99.90;;;;;;6302595;28;20465;-65
2023/05/10 01:42:52;;;;;;;5.90;5.30;;;10.90;99.90;;;;;;6301254;28;20492;-65
2023/05/10 01:46:10;;;;;;;6.50;5.10;;;10.90;99.90;;;;;;6289053;28;20805;-64
2023/05/10 01:49:22;;;;;;;8.37;6.60;;;10.80;99.90;;;;;;6302294;28;20948;-65
2023/05/10 01:52:31;;;;;;;5.40;4.90;;;10.80;99.90;;;;;;6302071;28;20805;-64
2023/05/10 01:55:43;;;;;;;5.90;5.30;;;10.70;99.90;;;;;;6301833;28;20492;-66
2023/05/10 01:58:49;;;;;;;5.40;4.90;;;10.70;99.90;;;;;;6302067;28;20481;-65
2023/05/10 02:01:53;;;;;;;5.30;4.80;;;10.70;99.90;;;;;;6302668;28;20473;-65
2023/05/10 02:04:59;;;;;;;6.43;5.40;;;10.70;99.90;;;;;;6302694;28;20468;-65
2023/05/10 02:08:03;;;;;;;6.73;5.70;;;10.70;99.90;;;;;;6301682;28;20469;-66
2023/05/10 02:11:07;;;;;;;7.03;6.10;;;10.70;99.90;;;;;;6301803;28;20469;-65
2023/05/10 02:14:12;;;;;;;6.50;5.77;;;10.60;99.90;;;;;;6301705;28;20492;-66
2023/05/10 02:17:16;;;;;;;6.90;6.20;;;10.60;99.90;;;;;;6301693;28;20492;-65
2023/05/10 02:20:22;;;;;;;5.37;4.87;;;10.60;99.90;;;;;;6301655;28;20488;-65
2023/05/10 02:23:27;;;;;;;6.30;5.70;;;10.60;99.90;;;;;;6301084;28;20479;-65
2023/05/10 02:26:32;;;;;;;7.83;5.70;;;10.60;99.90;;;;;;6301080;28;20488;-65
2023/05/10 02:29:36;;;;;;;6.53;5.93;;;10.60;99.90;;;;;;6301161;28;20469;-65
2023/05/10 02:32:40;;;;;;;6.77;6.00;;;10.50;99.90;;;;;;6300978;28;20473;-65
2023/05/10 02:35:45;;;;;;;8.20;5.40;;;10.50;99.90;;;;;;6301149;28;20552;-65
2023/05/10 02:38:50;;;;;;;6.23;4.90;;;10.40;99.90;;;;;;6300666;28;20473;-66
2023/05/10 02:41:55;;;;;;;6.77;5.90;;;10.40;99.90;;;;;;6300614;28;20492;-66
2023/05/10 02:45:02;;;;;;;6.30;5.80;;;10.30;99.90;;;;;;6300469;28;20953;-66
2023/05/10 02:48:05;;;;;;;6.77;5.03;;;10.20;99.90;;;;;;6301547;28;20441;-66
2023/05/10 02:51:13;;;;;;;5.10;4.60;;;10.30;99.90;;;;;;6311415;28;20469;-66
2023/05/10 02:54:20;;;;;;;6.40;5.80;;;10.30;99.90;;;;;;6301009;28;20441;-66
2023/05/10 02:57:28;;;;;;;6.67;5.30;;;10.20;99.90;;;;;;6300569;28;20453;-66
2023/05/10 03:00:31;;;;;;;5.93;5.43;;;10.20;99.90;;;;;;6300463;28;20465;-65
2023/05/10 03:03:35;;;;;;;6.97;6.37;;;10.10;99.90;;;;;;6300090;28;20464;-65
2023/05/10 03:06:39;;;;;;;6.70;6.10;;;10.10;99.90;;;;;;6300200;28;20465;-65
2023/05/10 03:09:43;;;;;;;6.27;5.43;;;10.10;99.90;;;;;;6299722;28;20784;-65
2023/05/10 03:13:03;;;;;;;6.67;6.10;;;10.10;99.90;;;;;;6299793;28;20487;-65
2023/05/10 03:16:11;;;;;;;8.07;5.77;;;10.00;99.90;;;;;;6300257;28;20470;-66
2023/05/10 03:19:21;;;;;;;7.03;5.73;;;9.90;99.90;;;;;;6299983;28;20816;-65
2023/05/10 03:22:31;;;;;;;7.37;6.67;;;9.90;99.90;;;;;;6299835;28;20465;-65
2023/05/10 03:25:35;;;;;;;6.77;5.90;;;9.90;99.90;;;;;;6299656;28;20484;-65
2023/05/10 03:28:39;;;;;;;6.50;5.80;;;9.90;99.90;;;;;;6300039;28;20509;-65
2023/05/10 03:31:42;;;;;;;6.77;5.93;;;9.90;99.90;;;;;;6299932;28;20476;-66
2023/05/10 03:34:46;;;;;;;7.47;6.17;;;9.80;99.90;;;;;;6299609;28;20603;-65
2023/05/10 03:37:50;;;;;;;6.23;5.63;;;9.90;99.90;;;;;;6299834;28;20469;-65
2023/05/10 03:40:53;;;;;;;7.63;6.63;;;9.90;99.90;;;;;;6299033;28;20491;-66
2023/05/10 03:43:56;;;;;;;7.13;6.53;;;9.80;99.90;;;;;;6299854;28;20472;-65
2023/05/10 03:46:59;;;;;;;9.67;5.70;;;9.80;99.90;;;;;;6299438;28;20469;-65
2023/05/10 03:50:03;;;;;;;6.20;5.60;;;9.80;99.90;;;;;;6299607;28;20475;-65
2023/05/10 03:53:07;;;;;;;6.20;5.60;;;9.90;99.90;;;;;;6290574;28;20475;-65
2023/05/10 03:56:10;;;;;;;7.93;6.50;;;9.90;99.90;;;;;;6299136;28;20484;-66
2023/05/10 03:59:13;;;;;;;10.17;6.77;;;9.90;99.90;;;;;;6299388;28;20473;-65
2023/05/10 04:02:16;;;;;;;5.93;5.10;;;9.90;99.90;;;;;;6299037;28;20481;-65
2023/05/10 04:05:20;;;;;;;6.03;5.40;;;9.90;99.90;;;;;;6299061;28;20469;-65
2023/05/10 04:08:24;;;;;;;6.13;5.53;;;10.00;99.90;;;;;;6299047;28;20987;-65
2023/05/10 04:11:27;;;;;;;6.20;5.60;;;10.00;99.90;;;;;;6299314;28;20480;-65
2023/05/10 04:14:30;;;;;;;8.70;6.13;;;10.10;99.90;;;;;;6299092;28;20806;-65
2023/05/10 04:17:34;;;;;;;6.30;5.70;;;10.10;99.90;;;;;;6299062;28;20510;-65
2023/05/10 04:20:37;;;;;;;5.73;5.03;;;10.20;99.90;;;;;;6299148;28;20563;-66
2023/05/10 04:23:42;;;;;;;7.50;5.20;;;10.30;99.90;;;;;;6299085;28;20488;-65
2023/05/10 04:26:45;;;;;;;6.70;6.07;;;10.30;99.90;;;;;;6299201;28;20497;-65
2023/05/10 04:29:48;;;;;;;5.87;5.37;;;10.40;99.90;;;;;;6298762;28;20552;-66
2023/05/10 04:32:51;;;;;;;6.03;5.43;;;10.50;99.90;;;;;;6299156;28;20476;-66
2023/05/10 04:35:54;;;;;;;6.60;5.90;;;10.60;99.90;;;;;;6298665;28;20492;-66
2023/05/10 04:38:59;;;;;;;6.00;5.40;;;10.80;99.90;;;;;;6298780;28;20484;-66
2023/05/10 04:42:03;;;;;;;6.27;5.70;;;10.80;99.90;;;;;;6273474;28;20498;-67
2023/05/10 04:45:07;;;;;;;5.47;5.00;;;10.90;99.90;;;;;;6298545;28;20454;-68
2023/05/10 04:48:13;;;;;;;7.30;5.87;;;11.10;99.90;;;;;;6273889;28;20448;-67
2023/05/10 04:51:16;;;;;;;6.40;5.43;;;11.20;99.90;;;;;;6274315;28;20429;-67
2023/05/10 04:54:20;;;;;;;7.07;6.33;;;11.20;99.90;;;;;;6269858;28;20442;-67
2023/05/10 04:57:24;;;;;;;8.50;4.87;;;11.20;99.90;;;;;;6274014;28;20473;-67
2023/05/10 05:00:27;;;;;;;6.17;5.57;;;11.20;99.90;;;;;;6274261;28;20465;-67
2023/05/10 05:03:30;;;;;;;5.77;5.03;;;11.10;99.90;;;;;;6274052;28;20457;-68
2023/05/10 05:06:33;;;;;;;6.60;5.63;;;11.10;99.90;;;;;;6273654;28;21016;-67
2023/05/10 05:09:38;;;;;;;5.70;5.20;;;11.10;99.90;;;;;;6273665;28;20466;-67
2023/05/10 05:12:41;;;;;;;8.67;5.83;;;11.10;99.90;;;;;;6280973;28;20556;-67
2023/05/10 05:15:44;;;;;;;7.70;5.70;;;11.10;99.90;;;;;;6281440;28;20494;-68
2023/05/10 05:18:47;;;;;;;8.90;7.40;;;11.20;99.90;;;;;;6276010;28;20474;-67
2023/05/10 05:21:50;;;;;;;7.40;5.43;;;11.20;99.90;;;;;;6277751;28;20481;-67
2023/05/10 05:24:55;;;;;;;7.27;5.97;;;11.20;99.90;;;;;;6278530;28;20478;-67
2023/05/10 05:27:58;;;;;;;8.00;6.27;;;11.30;99.90;;;;;;6278043;28;20569;-67
2023/05/10 05:31:01;;;;;;;6.73;6.03;;;11.40;99.90;;;;;;6278097;28;20477;-67
2023/05/10 05:34:05;;;;;;;5.60;5.10;;;11.50;99.90;;;;;;6277931;28;20469;-67
2023/05/10 05:37:08;;;;;;;6.37;5.50;;;11.70;99.90;;;;;;6277791;28;20481;-67
2023/05/10 05:40:15;;;;;;;8.10;5.70;;;11.80;99.90;;;;;;6277803;28;20484;-67
2023/05/10 05:43:18;;;;;;;7.00;6.40;;;12.00;99.90;;;;;;6277991;28;20477;-67
2023/05/10 05:46:21;;;;;;;6.63;5.57;;;12.30;99.90;;;;;;6278313;28;20462;-68
2023/05/10 05:49:24;;;;;;;6.60;5.87;;;12.60;99.90;;;;;;6277701;28;20462;-69
2023/05/10 05:52:28;;;;;;;6.00;5.50;;;12.90;99.90;;;;;;6277246;28;20977;-69
2023/05/10 05:55:32;;;;;;;6.33;5.80;;;13.10;99.90;;;;;;6277263;28;20965;-69
2023/05/10 05:58:35;;;;;;;6.97;5.23;;;13.30;99.90;;;;;;6273031;28;20968;-70
2023/05/10 06:01:38;;;;;;;7.70;5.47;;;13.40;99.90;;;;;;6277016;28;20478;-69
2023/05/10 06:04:42;;;;;;;6.03;5.53;;;13.60;99.90;;;;;;6277250;28;20637;-69
2023/05/10 06:07:46;;;;;;;7.47;5.43;;;13.70;99.90;;;;;;6273922;23;20477;-69
2023/05/10 06:10:51;;;;;;;8.97;6.00;;;13.80;99.90;;;;;;6276926;28;20470;-69
2023/05/10 06:13:54;;;;;;;5.63;4.90;;;13.80;99.90;;;;;;6276873;28;20470;-68
2023/05/10 06:16:59;;;;;;;6.10;5.50;;;14.00;99.90;;;;;;6277629;28;20474;-68
2023/05/10 06:20:02;;;;;;;5.83;5.33;;;14.00;99.90;;;;;;6276799;28;20527;-69
2023/05/10 06:23:06;;;;;;;8.13;5.80;;;14.10;99.90;;;;;;6276445;28;20481;-68
2023/05/10 06:26:10;;;;;;;5.80;4.80;;;14.10;99.90;;;;;;6276342;28;20819;-68
2023/05/10 06:29:15;;;;;;;6.00;5.50;;;14.20;99.90;;;;;;6276110;28;20588;-68
2023/05/10 06:32:18;;;;;;;7.47;6.73;;;14.30;99.90;;;;;;6276471;28;20745;-69
2023/05/10 06:35:21;;;;;;;6.27;5.53;;;14.40;99.80;;;;;;6276160;28;20470;-68
2023/05/10 06:38:24;;;;;;;5.93;4.80;;;14.50;99.80;;;;;;6276586;28;20474;-69
2023/05/10 06:41:29;;;;;;;8.10;5.80;;;14.70;99.90;;;;;;6276302;28;20844;-69
2023/05/10 06:44:32;;;;;;;10.33;5.30;;;14.90;99.40;;;;;;6275967;28;20478;-68
2023/05/10 06:47:35;;;;;;;6.47;5.80;;;15.20;99.20;;;;;;6276035;28;20968;-68
2023/05/10 06:50:41;;;;;;;6.83;6.00;;;15.40;98.80;;;;;;6276102;28;20471;-69
2023/05/10 06:53:44;;;;;;;6.00;5.40;;;15.60;98.10;;;;;;6276357;28;20473;-69
2023/05/10 06:56:49;;;;;;;7.70;6.17;;;15.70;97.80;;;;;;6275960;28;20803;-69
2023/05/10 06:59:52;;;;;;;9.13;6.47;;;15.90;97.00;;;;;;6275771;28;20482;-69
2023/05/10 07:02:55;;;;;;;7.17;6.50;;;16.00;96.80;;;;;;6275811;28;20489;-68
2023/05/10 07:06:04;;;;;;;7.20;6.60;;;16.10;96.20;;;;;;6275247;28;20506;-68
2023/05/10 07:09:07;;;;;;;6.70;6.07;;;16.20;95.70;;;;;;6276012;28;20600;-68
2023/05/10 07:12:12;;;;;;;13.63;6.43;;;16.30;95.90;;;;;;6276179;28;20584;-67
2023/05/10 07:15:17;;;;;;;7.17;6.47;;;16.50;95.00;;;;;;6275368;28;20458;-67
2023/05/10 07:18:21;;;;;;;6.97;6.27;;;17.00;94.80;;;;;;6274057;28;20442;-67
2023/05/10 07:21:25;;;;;;;8.97;6.60;;;17.40;94.20;;;;;;6273844;28;20489;-67
2023/05/10 07:24:28;;;;;;;6.53;5.87;;;17.70;93.20;;;;;;6273952;28;20990;-68
2023/05/10 07:27:32;;;;;;;6.50;5.90;;;17.80;93.00;;;;;;6274492;28;20470;-68
2023/05/10 07:30:35;;;;;;;7.13;6.33;;;18.00;92.60;;;;;;6274559;28;20477;-68
2023/05/10 07:33:39;;;;;;;5.87;5.37;;;18.10;91.70;;;;;;6275227;28;20462;-68
2023/05/10 07:36:42;;;;;;;8.03;5.90;;;18.20;91.90;;;;;;6275379;28;20223;-68
2023/05/10 07:39:46;;;;;;;7.20;5.70;;;18.40;91.40;;;;;;6277528;28;20234;-70
2023/05/10 07:42:50;;;;;;;6.53;5.80;;;18.50;90.90;;;;;;6268995;28;20486;-67
2023/05/10 07:45:53;;;;;;;6.57;5.90;;;18.60;90.70;;;;;;6249959;28;20483;-67
2023/05/10 07:48:58;;;;;;;7.30;6.10;;;18.70;90.20;;;;;;6271131;28;20233;-67
2023/05/10 07:52:01;;;;;;;10.10;5.37;;;18.70;90.20;;;;;;6274214;28;20296;-67
2023/05/10 07:55:05;;;;;;;7.73;6.83;;;18.60;90.00;;;;;;6274662;28;20239;-67
2023/05/10 07:58:10;;;;;;;5.97;5.43;;;18.50;90.10;;;;;;6274319;28;20690;-67
2023/05/10 08:01:13;;;;;;;8.03;6.70;;;18.40;90.20;;;;;;6273188;28;20470;-67
2023/05/10 08:04:16;;;;;;;7.90;6.90;;;18.20;90.00;;;;;;6274101;28;20231;-68
2023/05/10 08:07:19;;;;;;;6.60;5.90;;;18.10;89.70;;;;;;6275149;28;20313;-66
2023/05/10 08:10:23;;;;;;;6.50;5.90;;;18.10;90.20;;;;;;6269887;28;20732;-66
2023/05/10 08:13:27;;;;;;;6.40;5.70;;;18.10;90.10;;;;;;6265139;28;20240;-66
2023/05/10 08:16:32;;;;;;;6.20;5.70;;;18.10;90.30;;;;;;6252560;28;20242;-66
2023/05/10 08:19:35;;;;;;;6.57;5.20;;;18.00;90.50;;;;;;6267177;28;20239;-67
2023/05/10 08:22:39;;;;;;;6.60;6.00;;;18.10;90.70;;;;;;6275266;28;20234;-67
2023/05/10 08:25:42;;;;;;;7.90;6.27;;;18.20;90.30;;;;;;6275956;28;20470;-66
2023/05/10 08:28:47;;;;;;;7.00;6.30;;;18.20;90.40;;;;;;6276127;28;20227;-69
2023/05/10 08:31:50;;;;;;;6.43;5.83;;;18.10;89.60;;;;;;6275702;28;20478;-67
2023/05/10 08:34:53;;;;;;;5.70;5.17;;;18.10;88.40;;;;;;6274333;28;20257;-66
2023/05/10 08:37:56;;;;;;;7.20;4.70;;;18.00;88.30;;;;;;6274230;28;20478;-68
2023/05/10 08:41:02;;;;;;;4.80;4.40;;;17.90;85.60;;;;;;6274790;28;20710;-68
2023/05/10 08:44:09;;;;;;;9.07;5.10;;;18.00;85.20;;;;;;6274992;28;20246;-66
2023/05/10 08:47:13;;;;;;;5.50;4.43;;;18.20;85.50;;;;;;6274809;28;20612;-68
2023/05/10 08:50:19;;;;;;;6.23;5.60;;;18.30;83.40;;;;;;6274704;28;20293;-71
2023/05/10 08:53:23;;;;;;;5.90;5.40;;;18.50;84.30;;;;;;6277055;28;20240;-69
2023/05/10 08:56:27;;;;;;;6.37;5.73;;;18.70;85.30;;;;;;6278642;28;20235;-69
2023/05/10 08:59:32;;;;;;;7.97;6.60;;;18.90;83.50;;;;;;6278906;28;20228;-72
2023/05/10 09:02:37;;;;;;;5.83;5.23;;;18.90;81.30;;;;;;6278559;28;20554;-72
2023/05/10 09:05:41;;;;;;;6.10;5.50;;;19.10;81.70;;;;;;6278688;28;20236;-72
2023/05/10 09:08:45;;;;;;;6.73;6.07;;;19.40;78.50;;;;;;6278536;28;20242;-70
2023/05/10 09:11:49;;;;;;;7.10;5.70;;;19.40;79.40;;;;;;6278360;28;20227;-70
2023/05/10 09:14:55;;;;;;;7.07;6.37;;;19.70;79.70;;;;;;6273561;28;20627;-71
2023/05/10 09:18:01;;;;;;;8.10;6.87;;;20.70;75.70;;;;;;6279789;28;20243;-71
2023/05/10 09:21:05;;;;;;;7.10;5.70;;;21.40;73.20;;;;;;6278919;28;20293;-73
2023/05/10 09:24:09;;;;;;;6.77;6.10;;;22.10;71.20;;;;;;6279834;28;20243;-71
2023/05/10 09:27:15;;;;;;;6.70;5.87;;;22.10;68.90;;;;;;6279215;28;20236;-71
2023/05/10 09:30:26;;;;;;;6.70;6.03;;;22.20;67.70;;;;;;6277906;28;20196;-71
2023/05/10 09:33:29;;;;;;;5.93;5.43;;;22.10;67.10;;;;;;6277740;28;20667;-70
2023/05/10 09:36:33;;;;;;;6.87;6.17;;;21.40;68.20;;;;;;6277506;28;20239;-71
2023/05/10 09:39:37;;;;;;;6.33;5.73;;;21.50;68.70;;;;;;6278539;28;20231;-72
2023/05/10 09:42:41;;;;;;;6.73;5.70;;;21.80;66.60;;;;;;6283025;28;20228;-69
2023/05/10 09:45:49;;;;;;;5.93;5.43;;;21.90;64.70;;;;;;6280060;28;20307;-70
2023/05/10 09:48:53;;;;;;;7.17;6.27;;;21.50;65.00;;;;;;6277772;28;20299;-69
2023/05/10 09:52:03;;;;;;;5.80;5.30;;;21.50;65.20;;;;;;6277367;28;20231;-70
2023/05/10 09:55:07;;;;;;;6.27;5.10;;;21.40;64.90;;;;;;6278189;28;20231;-69
2023/05/10 09:58:10;;;;;;;6.23;5.40;;;21.00;65.10;;;;;;6279801;28;20687;-70
2023/05/10 10:01:15;;;;;;;6.93;6.33;;;21.00;67.30;;;;;;6288263;28;20573;-71
2023/05/10 10:04:20;;;;;;;7.70;6.93;;;21.50;67.20;;;;;;6278457;28;20378;-71
2023/05/10 10:07:26;;;;;;;7.13;6.53;;;21.90;66.10;;;;;;6277070;28;20246;-70
2023/05/10 10:10:30;;;;;;;7.60;6.30;;;21.60;65.10;;;;;;6276789;28;20230;-71
2023/05/10 10:13:33;;;;;;;6.37;5.77;;;22.00;65.50;;;;;;6276039;28;20219;-71
2023/05/10 10:16:38;;;;;;;6.57;5.97;;;22.30;64.50;;;;;;6276492;28;20223;-70
2023/05/10 10:19:54;;;;;;;6.10;5.50;;;22.80;62.90;;;;;;6277557;28;20227;-71
2023/05/10 10:22:57;;;;;;;5.77;5.30;;;22.70;60.10;;;;;;6278173;28;20667;-71
2023/05/10 10:26:01;;;;;;;6.20;5.37;;;23.00;59.60;;;;;;6278396;28;20243;-71
2023/05/10 10:29:13;;;;;;;6.67;6.07;;;23.50;58.40;;;;;;6279723;28;20254;-71
2023/05/10 10:32:26;;;;;;;6.90;6.27;;;23.70;56.90;;;;;;6276027;28;20223;-71
2023/05/10 10:35:31;;;;;;;7.20;5.90;;;23.50;57.10;;;;;;6273860;28;20239;-69
2023/05/10 10:38:59;;;;;;;5.90;5.33;;;23.00;58.90;;;;;;6275720;28;20250;-70
2023/05/10 10:42:03;;;;;;;8.03;5.90;;;23.00;58.00;;;;;;6275329;28;20242;-70
2023/05/10 10:45:16;;;;;;;7.73;6.30;;;22.90;57.50;;;;;;6273558;28;20242;-71
2023/05/10 10:48:26;;;;;;;6.73;6.13;;;22.50;58.60;;;;;;6275570;28;20227;-72
2023/05/10 10:51:31;;;;;;;7.27;6.70;;;22.30;59.30;;;;;;6275686;28;20648;-71
2023/05/10 10:54:34;;;;;;;8.70;5.53;;;22.40;59.00;;;;;;6275374;28;20659;-71
2023/05/10 10:57:48;;;;;;;6.73;6.20;;;22.60;58.60;;;;;;6275392;28;20231;-72
2023/05/10 11:01:09;;;;;;;8.30;7.20;;;22.80;59.50;;;;;;6275769;28;20232;-71
2023/05/10 11:04:21;;;;;;;7.63;6.90;;;22.90;58.80;;;;;;6275456;28;20566;-71
2023/05/10 11:07:24;;;;;;;6.40;5.90;;;22.90;58.60;;;;;;6275452;28;20669;-76
2023/05/10 11:10:28;;;;;;;6.17;5.67;;;22.60;57.50;;;;;;6275771;28;20239;-71
2023/05/10 11:13:34;;;;;;;7.20;6.60;;;22.50;59.60;;;;;;6275581;28;20749;-71
2023/05/10 11:16:43;;;;;;;7.90;7.10;;;22.20;58.50;;;;;;6275426;28;20239;-71
2023/05/10 11:20:09;;;;;;;8.60;7.80;;;22.10;60.00;;;;;;6275537;28;20230;-71
2023/05/10 11:23:15;;;;;;;7.90;7.13;;;21.60;61.80;;;;;;6275021;28;20236;-71
2023/05/10 11:26:22;;;;;;;7.47;6.80;;;21.70;62.30;;;;;;6275706;28;20844;-71
2023/05/10 11:29:27;;;;;;;7.57;6.83;;;21.50;62.00;;;;;;6277912;28;20285;-71
2023/05/10 11:32:31;;;;;;;6.10;5.60;;;21.10;61.70;;;;;;6274530;28;20227;-71
2023/05/10 11:35:40;;;;;;;7.20;6.47;;;20.80;62.20;;;;;;6274309;28;20249;-71
2023/05/10 11:38:46;;;;;;;6.83;6.23;;;20.40;63.80;;;;;;6276059;28;20593;-71
2023/05/10 11:41:50;;;;;;;6.73;6.17;;;20.00;64.90;;;;;;6252156;28;20232;-71
2023/05/10 11:44:53;;;;;;;7.50;6.90;;;19.60;67.20;;;;;;6249979;28;20235;-70
2023/05/10 11:47:58;;;;;;;8.50;6.90;;;19.30;69.00;;;;;;6264886;28;20239;-71
2023/05/10 11:51:03;;;;;;;8.90;7.50;;;19.20;68.80;;;;;;6274507;28;20237;-70
2023/05/10 11:54:09;;;;;;;7.47;6.87;;;19.50;69.90;;;;;;6276105;28;20227;-70
2023/05/10 11:57:12;;;;;;;7.13;6.40;;;19.60;69.70;;;;;;6273663;28;20235;-71
2023/05/10 12:00:15;;;;;;;7.37;6.50;;;19.80;68.80;;;;;;6276162;28;20204;-71
2023/05/10 12:03:19;;;;;;;7.40;6.10;;;19.70;68.60;;;;;;6274255;28;20227;-71
2023/05/10 12:06:27;;;;;;;6.00;5.40;;;19.70;69.10;;;;;;6274094;28;20569;-71
2023/05/10 12:09:30;;;;;;;7.03;6.47;;;19.60;68.90;;;;;;6274067;28;20661;-71
2023/05/10 12:12:47;;;;;;;6.63;5.17;;;19.60;67.60;;;;;;6274325;28;20238;-70
2023/05/10 12:15:51;;;;;;;7.63;6.20;;;19.40;68.60;;;;;;6273963;28;20227;-70
2023/05/10 12:18:58;;;;;;;6.43;5.87;;;19.40;68.30;;;;;;6274390;28;20265;-70
2023/05/10 12:22:06;;;;;;;6.10;5.60;;;19.30;69.50;;;;;;6277097;28;20242;-70
2023/05/10 12:25:10;;;;;;;6.63;6.00;;;19.10;69.40;;;;;;6278673;28;20231;-69
2023/05/10 12:28:13;;;;;;;7.97;7.10;;;19.10;69.80;;;;;;6273294;28;20574;-65
2023/05/10 12:31:17;;;;;;;6.47;5.87;;;19.00;69.20;;;;;;6279045;28;20685;-63
2023/05/10 12:34:32;;;;;;;6.93;6.33;;;18.80;70.70;;;;;;6278448;28;20227;-64
2023/05/10 12:37:38;;;;;;;7.20;6.40;;;18.60;71.20;;;;;;6278699;28;20242;-65
2023/05/10 12:40:42;;;;;;;7.60;6.00;;;18.50;71.20;;;;;;6278360;28;20235;-65
2023/05/10 12:43:46;;;;;;;6.63;6.03;;;18.40;71.50;;;;;;6278683;28;20369;-66
2023/05/10 12:46:49;;;;;;;6.80;6.17;;;18.40;71.70;;;;;;6278317;28;20230;-65
2023/05/10 12:49:52;;;;;;;6.00;5.60;;;18.30;71.30;;;;;;6278566;28;20305;-63
2023/05/10 12:52:57;;;;;;;5.20;4.80;;;18.30;71.80;;;;;;6278377;28;20231;-63
2023/05/10 12:56:00;;;;;;;6.30;5.80;;;18.50;71.60;;;;;;6278236;28;20324;-64
2023/05/10 12:59:03;;;;;;;6.93;5.70;;;18.60;71.80;;;;;;6278155;28;20437;-64
2023/05/10 13:02:07;;;;;;;6.70;6.20;;;18.70;71.60;;;;;;6278182;28;20227;-65
2023/05/10 13:05:12;;;;;;;6.07;5.13;;;18.70;71.40;;;;;;6277854;28;20251;-67
2023/05/10 13:08:17;;;;;;;6.53;5.93;;;18.90;72.20;;;;;;6277494;28;20694;-66
2023/05/10 13:11:21;;;;;;;7.53;6.83;;;19.00;71.30;;;;;;6277992;28;20246;-65
2023/05/10 13:14:25;;;;;;;7.20;6.50;;;19.10;71.60;;;;;;6277839;28;20254;-64
2023/05/10 13:17:28;;;;;;;6.53;6.00;;;19.20;70.30;;;;;;6277680;28;20277;-65
2023/05/10 13:20:32;;;;;;;5.90;5.40;;;19.10;69.90;;;;;;6277690;28;20310;-64
2023/05/10 13:23:37;;;;;;;6.57;6.07;;;19.10;69.80;;;;;;6277422;28;20635;-64
2023/05/10 13:26:40;;;;;;;5.97;5.37;;;19.00;69.80;;;;;;6277053;28;20559;-65
2023/05/10 13:29:43;;;;;;;6.13;5.53;;;18.90;70.50;;;;;;6277695;28;20741;-66
2023/05/10 13:32:47;;;;;;;6.80;6.10;;;18.90;71.50;;;;;;6273082;28;20234;-65
2023/05/10 13:35:50;;;;;;;6.40;5.90;;;19.00;72.10;;;;;;6277397;28;20511;-66
2023/05/10 13:38:57;;;;;;;7.30;6.70;;;19.00;72.60;;;;;;6275951;28;20242;-64
2023/05/10 13:42:00;;;;;;;6.97;6.37;;;19.00;72.50;;;;;;6277729;28;20227;-65
2023/05/10 13:45:04;;;;;;;6.57;6.07;;;18.90;71.80;;;;;;6277165;28;20722;-64
2023/05/10 13:48:07;;;;;;;7.73;6.77;;;18.70;72.70;;;;;;6276991;28;20239;-66
2023/05/10 13:51:10;;;;;;;6.93;6.13;;;18.70;73.20;;;;;;6277088;28;20234;-65
2023/05/10 13:54:17;;;;;;;7.70;5.60;;;18.80;73.60;;;;;;6277369;28;20204;-65
2023/05/10 13:57:20;;;;;;;6.17;5.67;;;18.70;73.20;;;;;;6277051;28;20228;-63
2023/05/10 14:00:23;;;;;;;5.87;5.47;;;18.80;73.50;;;;;;6261751;28;20218;-63
2023/05/10 14:03:26;;;;;;;6.53;5.60;;;18.90;73.20;;;;;;6265757;28;20285;-62
2023/05/10 14:06:30;;;;;;;6.00;5.50;;;19.10;72.70;;;;;;6272658;28;20258;-62
2023/05/10 14:09:35;;;;;;;6.37;5.80;;;19.30;72.30;;;;;;6252242;28;20224;-62
2023/05/10 14:12:38;;;;;;;8.20;5.83;;;19.40;71.40;;;;;;6251437;28;20679;-63
2023/05/10 14:15:41;;;;;;;6.00;5.50;;;19.50;71.10;;;;;;6260620;28;20314;-63
2023/05/10 14:18:44;;;;;;;5.60;5.20;;;19.60;69.60;;;;;;6276156;28;20257;-63
2023/05/10 14:21:47;;;;;;;5.60;5.10;;;19.70;69.10;;;;;;6276432;28;20243;-63
2023/05/10 14:24:52;;;;;;;6.93;5.30;;;19.80;69.50;;;;;;6276226;28;20675;-63
2023/05/10 14:27:55;;;;;;;6.73;6.13;;;19.80;69.90;;;;;;6276280;28;20233;-62
2023/05/10 14:30:58;;;;;;;7.57;5.43;;;19.70;69.50;;;;;;6276278;28;20289;-62
2023/05/10 14:34:02;;;;;;;6.10;5.53;;;19.80;69.80;;;;;;6255409;28;20232;-62
2023/05/10 14:37:06;;;;;;;6.10;5.70;;;19.80;69.20;;;;;;6251399;28;20522;-63
2023/05/10 14:40:13;;;;;;;7.30;6.70;;;19.60;69.50;;;;;;6262231;28;20231;-62
2023/05/10 14:43:17;;;;;;;7.17;6.50;;;19.50;70.30;;;;;;6278090;28;20227;-62
2023/05/10 14:46:20;;;;;;;6.60;6.00;;;19.40;69.90;;;;;;6279596;28;20261;-62
2023/05/10 14:49:25;;;;;;;6.20;5.80;;;19.50;70.20;;;;;;6278331;28;20223;-62
2023/05/10 14:52:28;;;;;;;6.40;5.60;;;19.50;70.30;;;;;;6274251;28;20247;-63
2023/05/10 14:55:34;;;;;;;5.70;5.30;;;19.60;70.40;;;;;;6272182;28;20228;-67
2023/05/10 14:58:37;;;;;;;6.33;5.93;;;19.70;69.50;;;;;;6274023;28;20231;-67
2023/05/10 15:01:41;;;;;;;6.07;5.47;;;19.80;68.80;;;;;;6267616;28;20321;-67
2023/05/10 15:04:45;;;;;;;6.20;5.70;;;19.90;69.20;;;;;;6251940;28;20635;-68
2023/05/10 15:07:49;;;;;;;5.93;5.40;;;20.10;69.10;;;;;;6257830;28;20235;-67
2023/05/10 15:10:55;;;;;;;6.47;5.90;;;20.30;68.50;;;;;;6267645;28;20738;-67
2023/05/10 15:13:58;;;;;;;5.77;5.37;;;20.30;68.10;;;;;;6274694;28;20235;-67
2023/05/10 15:17:01;;;;;;;6.20;5.73;;;20.40;67.60;;;;;;6271283;28;20250;-67
2023/05/10 15:20:05;;;;;;;6.00;5.53;;;20.40;67.40;;;;;;6248558;28;20305;-66
2023/05/10 15:23:08;;;;;;;5.80;5.40;;;20.20;67.30;;;;;;6273600;28;20266;-65
2023/05/10 15:26:14;;;;;;;6.27;5.77;;;20.00;67.70;;;;;;6272952;28;20266;-65
2023/05/10 15:29:19;;;;;;;6.50;5.80;;;20.00;68.30;;;;;;6273260;28;20228;-67
2023/05/10 15:32:22;;;;;;;5.53;5.13;;;20.10;68.70;;;;;;6268482;28;20281;-66
2023/05/10 15:35:26;;;;;;;5.63;5.13;;;20.10;68.60;;;;;;6272599;28;20361;-65
2023/05/10 15:38:29;;;;;;;6.20;5.60;;;20.20;68.90;;;;;;6272670;28;20242;-64
2023/05/10 15:41:34;;;;;;;6.07;5.47;;;20.30;68.60;;;;;;6268630;28;20609;-64
2023/05/10 15:44:38;;;;;;;5.23;4.83;;;20.30;67.70;;;;;;6271874;28;20230;-63
2023/05/10 15:47:41;;;;;;;5.83;5.43;;;20.30;67.30;;;;;;6273485;28;20231;-64
2023/05/10 15:50:44;;;;;;;6.53;5.97;;;20.20;67.60;;;;;;6273746;28;20242;-64
2023/05/10 15:53:48;;;;;;;5.50;5.10;;;20.20;67.80;;;;;;6274686;28;20527;-64
2023/05/10 15:57:10;;;;;;;5.90;5.30;;;20.20;67.30;;;;;;6272346;28;20250;-64
2023/05/10 16:00:13;;;;;;;5.30;4.93;;;20.10;66.70;;;;;;6274021;28;20239;-64
2023/05/10 16:03:17;;;;;;;5.00;4.60;;;19.90;67.50;;;;;;6274155;28;20210;-64
2023/05/10 16:06:20;;;;;;;5.90;4.53;;;19.70;67.90;;;;;;6268917;28;20232;-64